Time;durP1;ratioP1;P1;durP2;ratioP2;P2;SDS_P1;SDS_P2;PMS_P1;PMS_P2;Temp;Humidity;BMP_temperature;BMP_pressure;BME280_temperature;BME280_humidity;BME280_pressure;Samples;Min_cycle;Max_cycle;Signal;HPM_P1;HPM_P2
2023/04/02 00:01:21;;;;;;;8.52;6.88;;;;;;;;;;5055246;28;20135;-78
2023/04/02 00:03:52;;;;;;;10.88;7.32;;;;;;;;;;5063539;28;20086;-75
2023/04/02 00:06:31;;;;;;;9.98;6.65;;;;;;;;;;5062738;28;20058;-77
2023/04/02 00:09:03;;;;;;;9.98;6.65;;;;;;;;;;5070794;28;20484;-76
2023/04/02 00:11:32;;;;;;;8.95;6.07;;;;;;;;;;5049626;28;20054;-77
2023/04/02 00:13:58;;;;;;;;;;;;;;;;;;5061724;28;20500;-76
2023/04/02 00:16:26;;;;;;;7.57;5.63;;;;;;;;;;5064262;28;20472;-75
2023/04/02 00:18:54;;;;;;;8.27;5.80;;;;;;;;;;5066117;28;20492;-75
2023/04/02 00:21:23;;;;;;;9.63;6.07;;;;;;;;;;5062672;28;20284;-77
2023/04/02 00:23:49;;;;;;;7.20;5.53;;;;;;;;;;5053774;28;20052;-78
2023/04/02 00:26:23;;;;;;;7.20;5.45;;;;;;;;;;5058189;28;20515;-77
2023/04/02 00:28:50;;;;;;;6.72;5.22;;;;;;;;;;5047680;28;20489;-77
2023/04/02 00:31:18;;;;;;;7.15;5.57;;;;;;;;;;5053713;28;20049;-77
2023/04/02 00:33:45;;;;;;;7.03;5.18;;;;;;;;;;5065531;28;20562;-77
2023/04/02 00:36:11;;;;;;;8.95;6.05;;;;;;;;;;5044879;28;20136;-75
2023/04/02 00:38:42;;;;;;;7.93;5.13;;;;;;;;;;5058173;28;20059;-74
2023/04/02 00:41:12;;;;;;;5.78;4.35;;;;;;;;;;5061388;28;20056;-76
2023/04/02 00:43:43;;;;;;;6.38;4.82;;;;;;;;;;5048163;28;20071;-77
2023/04/02 00:46:12;;;;;;;8.43;5.22;;;;;;;;;;5057992;28;20139;-77
2023/04/02 00:48:48;;;;;;;8.30;5.10;;;;;;;;;;5058628;28;20489;-75
2023/04/02 00:51:20;;;;;;;7.30;5.10;;;;;;;;;;5063331;28;20044;-76
2023/04/02 00:53:47;;;;;;;6.63;4.63;;;;;;;;;;5055291;28;20051;-77
2023/04/02 00:56:26;;;;;;;5.90;4.50;;;;;;;;;;5065658;28;20070;-77
2023/04/02 00:58:53;;;;;;;6.40;4.97;;;;;;;;;;5069007;28;20044;-77
2023/04/02 01:01:28;;;;;;;7.32;5.28;;;;;;;;;;5061393;28;20102;-75
2023/04/02 01:03:57;;;;;;;7.75;5.60;;;;;;;;;;5070422;28;20048;-77
2023/04/02 01:06:28;;;;;;;7.00;5.60;;;;;;;;;;5068011;28;20048;-77
2023/04/02 01:09:19;;;;;;;7.57;5.70;;;;;;;;;;5060018;28;20127;-76
2023/04/02 01:11:58;;;;;;;8.43;5.05;;;;;;;;;;5053053;28;20147;-75
2023/04/02 01:14:43;;;;;;;7.63;5.88;;;;;;;;;;5060309;28;20049;-77
2023/04/02 01:17:09;;;;;;;8.02;5.13;;;;;;;;;;5045031;28;20072;-77
2023/04/02 01:19:47;;;;;;;6.72;5.45;;;;;;;;;;5071400;28;20054;-77
2023/04/02 01:22:29;;;;;;;6.72;5.32;;;;;;;;;;5057151;28;20049;-73
2023/04/02 01:24:57;;;;;;;6.60;5.13;;;;;;;;;;5059564;28;20411;-76
2023/04/02 01:27:26;;;;;;;6.63;5.45;;;;;;;;;;5076108;28;20800;-77
2023/04/02 01:29:55;;;;;;;8.30;5.72;;;;;;;;;;5064423;28;20059;-75
2023/04/02 01:32:22;;;;;;;7.80;5.53;;;;;;;;;;5068491;28;20139;-77
2023/04/02 01:34:50;;;;;;;6.88;5.85;;;;;;;;;;5061397;28;20452;-77
2023/04/02 01:37:27;;;;;;;7.00;5.50;;;;;;;;;;5062309;28;20068;-77
2023/04/02 01:40:13;;;;;;;7.10;5.33;;;;;;;;;;5059061;28;20082;-76
2023/04/02 01:42:39;;;;;;;8.70;5.30;;;;;;;;;;5072156;28;20051;-76
2023/04/02 01:45:13;;;;;;;7.07;5.00;;;;;;;;;;5065200;28;20052;-74
2023/04/02 01:47:41;;;;;;;7.30;5.28;;;;;;;;;;5047035;28;20048;-77
2023/04/02 01:50:20;;;;;;;7.57;5.60;;;;;;;;;;5069171;28;20107;-74
2023/04/02 01:52:58;;;;;;;8.40;6.07;;;;;;;;;;5054238;28;20052;-77
2023/04/02 01:55:33;;;;;;;7.80;5.93;;;;;;;;;;5072635;28;20505;-77
2023/04/02 01:58:00;;;;;;;6.72;5.22;;;;;;;;;;5057804;28;20294;-76
2023/04/02 02:00:29;;;;;;;7.45;5.72;;;;;;;;;;5073670;28;20075;-76
2023/04/02 02:02:55;;;;;;;7.80;5.45;;;;;;;;;;5055297;28;20481;-76
2023/04/02 02:05:22;;;;;;;7.30;5.38;;;;;;;;;;5059407;28;20772;-77
2023/04/02 02:07:49;;;;;;;8.50;5.75;;;;;;;;;;5067461;28;20079;-75
2023/04/02 02:10:17;;;;;;;6.82;5.45;;;;;;;;;;5072615;28;20039;-77
2023/04/02 02:12:45;;;;;;;7.55;5.18;;;;;;;;;;5075279;28;20036;-75
2023/04/02 02:15:13;;;;;;;8.60;5.68;;;;;;;;;;5053326;28;20052;-75
2023/04/02 02:17:40;;;;;;;8.43;5.88;;;;;;;;;;5067344;28;20057;-72
2023/04/02 02:20:11;;;;;;;10.48;6.03;;;;;;;;;;5092216;28;20040;-73
2023/04/02 02:22:45;;;;;;;9.55;6.65;;;;;;;;;;5082682;28;20049;-73
2023/04/02 02:25:25;;;;;;;8.52;6.10;;;;;;;;;;5071894;28;20070;-76
2023/04/02 02:27:52;;;;;;;8.50;6.18;;;;;;;;;;5058703;28;20539;-76
2023/04/02 02:30:25;;;;;;;8.07;6.13;;;;;;;;;;5066910;28;20072;-76
2023/04/02 02:33:07;;;;;;;8.98;5.82;;;;;;;;;;5057228;28;20117;-77
2023/04/02 02:35:42;;;;;;;11.95;6.35;;;;;;;;;;5056772;28;20731;-77
2023/04/02 02:38:34;;;;;;;9.35;7.10;;;;;;;;;;5053919;28;20072;-70
2023/04/02 02:41:05;;;;;;;11.75;8.25;;;;;;;;;;5062060;28;20064;-69
2023/04/02 02:43:32;;;;;;;10.93;6.45;;;;;;;;;;5065342;28;20048;-70
2023/04/02 02:46:01;;;;;;;8.57;5.85;;;;;;;;;;5060137;28;20551;-70
2023/04/02 02:48:33;;;;;;;9.98;7.35;;;;;;;;;;5060781;28;20060;-69
2023/04/02 02:51:00;;;;;;;15.13;8.95;;;;;;;;;;5055498;28;20440;-71
2023/04/02 02:53:27;;;;;;;11.48;7.65;;;;;;;;;;5068469;28;20040;-70
2023/04/02 02:55:57;;;;;;;10.23;7.65;;;;;;;;;;5056771;28;20052;-70
2023/04/02 02:58:26;;;;;;;10.85;7.90;;;;;;;;;;5050871;28;20052;-70
2023/04/02 03:00:53;;;;;;;8.52;6.78;;;;;;;;;;5048486;28;20058;-71
2023/04/02 03:03:20;;;;;;;9.57;6.78;;;;;;;;;;5042275;28;20083;-69
2023/04/02 03:06:00;;;;;;;7.45;5.85;;;;;;;;;;5060293;28;20090;-69
2023/04/02 03:08:47;;;;;;;8.70;5.78;;;;;;;;;;5061168;28;20040;-69
2023/04/02 03:11:32;;;;;;;8.43;6.60;;;;;;;;;;5050162;28;20171;-73
2023/04/02 03:14:05;;;;;;;8.48;5.78;;;;;;;;;;5054561;28;20048;-70
2023/04/02 03:16:32;;;;;;;6.75;4.78;;;;;;;;;;5061644;28;20531;-69
2023/04/02 03:19:23;;;;;;;5.00;3.70;;;;;;;;;;5047734;28;20056;-70
2023/04/02 03:21:49;;;;;;;6.78;3.78;;;;;;;;;;5064826;28;20059;-69
2023/04/02 03:24:16;;;;;;;7.70;3.80;;;;;;;;;;5064978;28;20563;-72
2023/04/02 03:26:50;;;;;;;6.03;4.03;;;;;;;;;;5065909;28;20052;-70
2023/04/02 03:32:10;;;;;;;6.35;3.85;;;;;;;;;;2445285;22;20049;-64
2023/04/02 03:34:40;;;;;;;8.85;4.57;;;;;;;;;;5031934;28;20072;-66
2023/04/02 03:37:13;;;;;;;6.95;4.28;;;;;;;;;;5030560;28;20045;-63
2023/04/02 03:39:42;;;;;;;5.07;4.07;;;;;;;;;;5025195;28;20052;-65
2023/04/02 03:42:17;;;;;;;6.75;4.80;;;;;;;;;;5035529;28;20057;-63
2023/04/02 03:44:50;;;;;;;7.22;4.40;;;;;;;;;;5041846;28;20059;-65
2023/04/02 03:47:48;;;;;;;7.63;4.60;;;;;;;;;;5029768;28;20164;-64
2023/04/02 03:50:15;;;;;;;7.07;5.05;;;;;;;;;;4976784;28;20782;-64
2023/04/02 03:52:41;;;;;;;8.10;5.60;;;;;;;;;;5029837;28;20048;-66
2023/04/02 03:55:14;;;;;;;7.55;5.00;;;;;;;;;;5039399;28;20052;-64
2023/04/02 03:57:54;;;;;;;8.88;4.82;;;;;;;;;;5033861;28;20049;-64
2023/04/02 04:00:40;;;;;;;9.02;5.20;;;;;;;;;;5040888;28;20059;-66
2023/04/02 04:03:12;;;;;;;9.45;6.60;;;;;;;;;;5037749;28;20057;-66
2023/04/02 04:05:45;;;;;;;12.68;7.20;;;;;;;;;;5035732;28;20053;-64
2023/04/02 04:08:14;;;;;;;9.25;6.45;;;;;;;;;;5044049;28;20040;-64
2023/04/02 04:10:41;;;;;;;10.48;6.97;;;;;;;;;;5015856;28;20068;-65
2023/04/02 04:13:11;;;;;;;11.07;7.45;;;;;;;;;;5035608;28;20436;-64
2023/04/02 04:15:41;;;;;;;11.13;7.40;;;;;;;;;;5029721;28;20049;-64
2023/04/02 04:18:11;;;;;;;10.82;7.05;;;;;;;;;;5045283;28;20045;-65
2023/04/02 04:20:55;;;;;;;9.77;6.57;;;;;;;;;;5043433;28;20044;-64
2023/04/02 04:23:31;;;;;;;7.05;6.07;;;;;;;;;;5043254;28;20048;-64
2023/04/02 04:26:00;;;;;;;9.73;6.35;;;;;;;;;;5045641;28;20139;-64
2023/04/02 04:28:40;;;;;;;8.73;6.50;;;;;;;;;;5034029;28;20136;-66
2023/04/02 04:31:16;;;;;;;9.95;7.03;;;;;;;;;;5037088;28;20136;-66
2023/04/02 04:33:45;;;;;;;6.95;5.55;;;;;;;;;;5034527;28;20049;-64
2023/04/02 04:36:11;;;;;;;;;;;;;;;;;;5044244;28;20048;-65
2023/04/02 04:38:39;;;;;;;10.43;5.80;;;;;;;;;;5035965;28;20373;-66
2023/04/02 04:41:14;;;;;;;8.13;5.53;;;;;;;;;;5041689;28;20088;-67
2023/04/02 04:43:53;;;;;;;11.25;5.55;;;;;;;;;;5040879;28;20489;-65
2023/04/02 04:46:24;;;;;;;9.95;5.03;;;;;;;;;;5018690;28;20103;-64
2023/04/02 04:48:59;;;;;;;7.63;4.85;;;;;;;;;;5043636;28;20452;-64
2023/04/02 04:51:41;;;;;;;6.97;4.70;;;;;;;;;;5019986;28;20143;-66
2023/04/02 04:54:14;;;;;;;7.18;4.65;;;;;;;;;;5041254;28;20056;-64
2023/04/02 04:56:44;;;;;;;10.65;4.60;;;;;;;;;;5015113;28;20048;-64
2023/04/02 04:59:17;;;;;;;8.70;5.00;;;;;;;;;;5041454;28;20538;-65
2023/04/02 05:01:44;;;;;;;8.65;4.55;;;;;;;;;;5044277;28;20048;-64
2023/04/02 05:04:26;;;;;;;12.07;4.88;;;;;;;;;;5035402;28;20049;-65
2023/04/02 05:06:56;;;;;;;8.43;4.03;;;;;;;;;;5044989;28;20388;-64
2023/04/02 05:09:35;;;;;;;7.78;4.13;;;;;;;;;;5034314;28;20041;-64
2023/04/02 05:12:09;;;;;;;7.70;4.03;;;;;;;;;;5041572;28;20071;-66
2023/04/02 05:14:41;;;;;;;8.85;4.15;;;;;;;;;;5036989;28;20045;-65
2023/04/02 05:17:18;;;;;;;8.02;3.92;;;;;;;;;;5041654;28;20052;-64
2023/04/02 05:19:57;;;;;;;5.63;3.60;;;;;;;;;;5033868;28;20044;-65
2023/04/02 05:22:54;;;;;;;7.82;3.63;;;;;;;;;;5041351;28;20312;-65
2023/04/02 05:25:23;;;;;;;6.32;3.58;;;;;;;;;;5005278;28;20079;-65
2023/04/02 05:28:00;;;;;;;8.90;3.70;;;;;;;;;;5044176;28;20746;-65
2023/04/02 05:30:27;;;;;;;7.60;4.40;;;;;;;;;;5044068;28;20053;-63
2023/04/02 05:33:03;;;;;;;4.78;2.90;;;;;;;;;;5036550;28;20047;-64
2023/04/02 05:35:33;;;;;;;4.28;2.60;;;;;;;;;;5045013;28;20826;-64
2023/04/02 05:38:03;;;;;;;7.28;3.00;;;;;;;;;;5030228;28;20171;-66
2023/04/02 05:40:32;;;;;;;6.65;3.10;;;;;;;;;;5043192;28;20048;-62
2023/04/02 05:42:59;;;;;;;6.45;2.67;;;;;;;;;;5037058;28;20060;-66
2023/04/02 05:45:25;;;;;;;7.22;3.30;;;;;;;;;;5042690;28;20748;-65
2023/04/02 05:47:53;;;;;;;6.85;3.80;;;;;;;;;;5043652;28;20044;-65
2023/04/02 05:50:25;;;;;;;7.03;2.55;;;;;;;;;;5036153;28;20052;-64
2023/04/02 05:53:01;;;;;;;6.82;3.30;;;;;;;;;;5045418;28;20045;-64
2023/04/02 05:55:41;;;;;;;7.82;3.10;;;;;;;;;;5037887;28;20044;-64
2023/04/02 05:58:17;;;;;;;7.57;2.63;;;;;;;;;;5024602;28;20555;-64
2023/04/02 06:00:46;;;;;;;6.50;2.17;;;;;;;;;;5014785;28;20512;-66
2023/04/02 06:03:22;;;;;;;8.70;2.60;;;;;;;;;;5040685;28;20049;-64
2023/04/02 06:05:50;;;;;;;6.03;2.45;;;;;;;;;;5036904;28;20053;-65
2023/04/02 06:08:20;;;;;;;4.15;2.20;;;;;;;;;;5037147;28;20056;-65
2023/04/02 06:10:53;;;;;;;8.05;2.40;;;;;;;;;;5041269;28;20053;-63
2023/04/02 06:13:19;;;;;;;5.05;2.30;;;;;;;;;;5035212;28;20135;-63
2023/04/02 06:15:46;;;;;;;5.95;2.20;;;;;;;;;;5037682;28;20051;-64
2023/04/02 06:18:19;;;;;;;4.50;1.90;;;;;;;;;;5032626;28;20468;-64
2023/04/02 06:20:45;;;;;;;6.53;2.20;;;;;;;;;;5043125;28;20077;-64
2023/04/02 06:23:18;;;;;;;7.47;2.42;;;;;;;;;;5040770;28;20045;-64
2023/04/02 06:25:54;;;;;;;3.40;1.85;;;;;;;;;;5035943;28;20049;-66
2023/04/02 06:28:25;;;;;;;5.70;2.13;;;;;;;;;;5043233;28;20049;-64
2023/04/02 06:30:53;;;;;;;4.47;2.28;;;;;;;;;;5028821;28;20051;-65
2023/04/02 06:33:19;;;;;;;5.63;2.00;;;;;;;;;;5022808;28;20516;-63
2023/04/02 06:35:49;;;;;;;5.90;1.98;;;;;;;;;;5034602;28;20404;-65
2023/04/02 06:38:18;;;;;;;4.22;1.70;;;;;;;;;;5040061;28;20067;-65
2023/04/02 06:40:51;;;;;;;2.92;1.80;;;;;;;;;;5040799;28;20053;-65
2023/04/02 06:43:34;;;;;;;3.85;1.52;;;;;;;;;;5035262;28;20445;-64
2023/04/02 06:46:24;;;;;;;4.35;1.70;;;;;;;;;;5043048;28;20045;-64
2023/04/02 06:48:52;;;;;;;3.88;1.50;;;;;;;;;;5001439;28;20048;-66
2023/04/02 06:51:20;;;;;;;4.80;1.90;;;;;;;;;;5022057;28;20049;-64
2023/04/02 06:53:48;;;;;;;3.83;2.00;;;;;;;;;;5034725;28;20041;-64
2023/04/02 06:56:33;;;;;;;5.25;1.70;;;;;;;;;;5035359;28;20049;-65
2023/04/02 06:58:59;;;;;;;4.25;1.98;;;;;;;;;;5035065;28;20041;-64
2023/04/02 07:01:28;;;;;;;5.18;1.85;;;;;;;;;;5041637;28;20083;-65
2023/04/02 07:03:55;;;;;;;5.28;1.63;;;;;;;;;;5041550;28;20041;-65
2023/04/02 07:06:21;;;;;;;3.72;1.73;;;;;;;;;;5038772;28;20045;-63
2023/04/02 07:08:48;;;;;;;6.00;1.98;;;;;;;;;;5035193;28;20105;-65
2023/04/02 07:11:15;;;;;;;3.45;1.70;;;;;;;;;;5029708;28;20416;-65
2023/04/02 07:13:45;;;;;;;7.57;2.25;;;;;;;;;;5023820;28;20045;-65
2023/04/02 07:16:16;;;;;;;2.90;1.40;;;;;;;;;;5032979;28;20047;-63
2023/04/02 07:18:43;;;;;;;4.40;2.05;;;;;;;;;;5040610;28;20064;-64
2023/04/02 07:21:09;;;;;;;5.93;2.03;;;;;;;;;;5045492;28;20052;-66
2023/04/02 07:23:36;;;;;;;5.68;1.98;;;;;;;;;;5034228;28;20138;-65
2023/04/02 07:26:03;;;;;;;4.45;1.98;;;;;;;;;;5041396;28;20045;-66
2023/04/02 07:28:29;;;;;;;6.47;2.03;;;;;;;;;;5036058;28;20072;-64
2023/04/02 07:30:59;;;;;;;5.43;1.80;;;;;;;;;;5037976;28;20061;-65
2023/04/02 07:33:27;;;;;;;6.65;1.77;;;;;;;;;;5032194;28;20132;-65
2023/04/02 07:35:54;;;;;;;5.72;2.00;;;;;;;;;;5034913;28;20639;-63
2023/04/02 07:38:21;;;;;;;3.95;2.08;;;;;;;;;;5040923;28;20044;-65
2023/04/02 07:40:47;;;;;;;5.43;1.70;;;;;;;;;;5034065;28;20045;-64
2023/04/02 07:43:14;;;;;;;4.18;2.00;;;;;;;;;;5041877;28;20048;-64
2023/04/02 07:45:40;;;;;;;6.38;1.92;;;;;;;;;;5033995;28;20584;-65
2023/04/02 07:48:08;;;;;;;5.72;1.95;;;;;;;;;;5037748;28;20041;-65
2023/04/02 07:50:35;;;;;;;4.85;1.83;;;;;;;;;;5039176;28;20442;-65
2023/04/02 07:53:02;;;;;;;7.00;2.55;;;;;;;;;;5027851;28;20052;-65
2023/04/02 07:55:28;;;;;;;3.28;2.20;;;;;;;;;;5046022;28;20045;-65
2023/04/02 07:57:55;;;;;;;6.28;2.50;;;;;;;;;;5036681;28;20045;-64
2023/04/02 08:00:22;;;;;;;4.85;2.00;;;;;;;;;;5040991;28;20593;-65
2023/04/02 08:02:49;;;;;;;9.73;2.20;;;;;;;;;;5033855;28;20045;-66
2023/04/02 08:05:16;;;;;;;4.80;2.03;;;;;;;;;;5045410;28;20884;-65
2023/04/02 08:07:42;;;;;;;3.33;2.13;;;;;;;;;;5042991;28;20064;-64
2023/04/02 08:10:10;;;;;;;4.90;2.13;;;;;;;;;;5037549;28;20044;-64
2023/04/02 08:12:36;;;;;;;7.97;2.28;;;;;;;;;;5043192;28;20670;-66
2023/04/02 08:15:05;;;;;;;7.75;3.30;;;;;;;;;;5032039;28;20048;-65
2023/04/02 08:17:32;;;;;;;6.50;2.78;;;;;;;;;;5037862;28;20050;-65
2023/04/02 08:20:04;;;;;;;4.20;2.30;;;;;;;;;;5020453;28;20132;-66
2023/04/02 08:22:31;;;;;;;8.52;2.25;;;;;;;;;;5030585;28;20128;-65
2023/04/02 08:24:57;;;;;;;5.20;1.80;;;;;;;;;;5045849;28;20061;-66
2023/04/02 08:27:25;;;;;;;5.95;1.95;;;;;;;;;;5037498;28;20053;-65
2023/04/02 08:29:51;;;;;;;4.47;1.73;;;;;;;;;;5029203;28;20060;-65
2023/04/02 08:32:17;;;;;;;4.30;2.30;;;;;;;;;;5013476;28;21778;-65
2023/04/02 08:34:44;;;;;;;4.85;2.00;;;;;;;;;;5038921;28;20041;-65
2023/04/02 08:37:11;;;;;;;5.47;1.92;;;;;;;;;;5030312;28;20049;-66
2023/04/02 08:39:38;;;;;;;6.03;2.30;;;;;;;;;;5036706;28;20048;-67
2023/04/02 08:42:16;;;;;;;4.70;2.22;;;;;;;;;;5037482;28;20048;-65
2023/04/02 08:45:00;;;;;;;3.55;1.90;;;;;;;;;;5039840;28;20053;-65
2023/04/02 08:47:39;;;;;;;3.72;1.60;;;;;;;;;;5040350;28;20454;-64
2023/04/02 08:50:25;;;;;;;5.93;1.90;;;;;;;;;;5040619;28;20461;-65
2023/04/02 08:52:51;;;;;;;7.13;2.10;;;;;;;;;;5022550;28;20081;-63
2023/04/02 08:55:25;;;;;;;2.88;1.80;;;;;;;;;;5038549;28;20051;-65
2023/04/02 08:58:06;;;;;;;4.50;1.98;;;;;;;;;;5042368;28;20060;-66
2023/04/02 09:00:38;;;;;;;6.03;2.08;;;;;;;;;;5039953;28;20056;-65
2023/04/02 09:03:18;;;;;;;6.32;2.67;;;;;;;;;;5026559;28;20080;-64
2023/04/02 09:05:45;;;;;;;9.05;2.90;;;;;;;;;;5036905;28;20052;-64
2023/04/02 09:08:19;;;;;;;9.77;3.13;;;;;;;;;;5034173;28;20052;-65
2023/04/02 09:11:06;;;;;;;7.65;3.17;;;;;;;;;;5044199;28;20666;-64
2023/04/02 09:13:33;;;;;;;10.43;3.33;;;;;;;;;;5037559;28;20419;-64
2023/04/02 09:16:06;;;;;;;6.82;2.88;;;;;;;;;;5043819;28;20664;-66
2023/04/02 09:18:33;;;;;;;4.10;2.50;;;;;;;;;;5037330;28;20171;-64
2023/04/02 09:21:02;;;;;;;5.50;2.35;;;;;;;;;;5034643;28;20052;-64
2023/04/02 09:23:28;;;;;;;3.80;2.38;;;;;;;;;;5023443;28;20048;-65
2023/04/02 09:25:55;;;;;;;5.50;2.65;;;;;;;;;;5025676;28;20056;-65
2023/04/02 09:28:30;;;;;;;4.80;2.42;;;;;;;;;;5026101;28;20400;-64
2023/04/02 09:31:17;;;;;;;6.25;2.22;;;;;;;;;;5035626;28;20053;-66
2023/04/02 09:33:48;;;;;;;4.03;2.20;;;;;;;;;;5037249;28;20049;-65
2023/04/02 09:36:24;;;;;;;4.95;2.50;;;;;;;;;;5035112;28;20107;-63
2023/04/02 09:38:59;;;;;;;5.75;2.00;;;;;;;;;;5037043;28;20049;-64
2023/04/02 09:41:27;;;;;;;6.45;1.90;;;;;;;;;;5035785;28;20126;-66
2023/04/02 09:44:13;;;;;;;3.13;1.77;;;;;;;;;;5041104;28;20048;-63
2023/04/02 09:46:46;;;;;;;7.78;1.80;;;;;;;;;;5036168;28;20056;-64
2023/04/02 09:49:17;;;;;;;5.72;2.00;;;;;;;;;;5034830;28;20540;-64
2023/04/02 09:51:43;;;;;;;5.95;2.08;;;;;;;;;;5041560;28;20067;-65
2023/04/02 09:54:14;;;;;;;3.92;1.90;;;;;;;;;;5019451;28;20056;-62
2023/04/02 09:56:59;;;;;;;3.20;2.03;;;;;;;;;;5025727;28;20082;-63
2023/04/02 09:59:26;;;;;;;5.57;2.45;;;;;;;;;;5037168;28;20085;-63
2023/04/02 10:01:52;;;;;;;7.95;3.05;;;;;;;;;;5035960;28;20060;-63
2023/04/02 10:04:37;;;;;;;5.03;2.47;;;;;;;;;;5032933;28;20057;-64
2023/04/02 10:07:08;;;;;;;4.50;2.45;;;;;;;;;;5042025;28;20073;-65
2023/04/02 10:09:36;;;;;;;5.65;2.40;;;;;;;;;;5041866;28;20053;-63
2023/04/02 10:12:10;;;;;;;4.10;2.00;;;;;;;;;;5034610;28;20103;-64
2023/04/02 10:14:38;;;;;;;4.30;2.00;;;;;;;;;;5038450;28;20303;-65
2023/04/02 10:17:05;;;;;;;2.75;1.60;;;;;;;;;;5030336;28;20733;-63
2023/04/02 10:19:35;;;;;;;5.78;1.80;;;;;;;;;;5039603;28;20132;-63
2023/04/02 10:22:03;;;;;;;2.08;1.20;;;;;;;;;;5036347;28;20148;-63
2023/04/02 10:24:30;;;;;;;6.30;2.13;;;;;;;;;;5043437;28;20045;-63
2023/04/02 10:27:00;;;;;;;4.05;1.48;;;;;;;;;;5041340;28;20045;-65
2023/04/02 10:29:45;;;;;;;2.85;1.60;;;;;;;;;;5035732;28;20485;-63
2023/04/02 10:32:27;;;;;;;3.70;1.58;;;;;;;;;;5030411;28;20140;-65
2023/04/02 10:35:12;;;;;;;5.28;1.60;;;;;;;;;;5016846;28;20048;-63
2023/04/02 10:37:45;;;;;;;3.45;1.90;;;;;;;;;;5041057;28;20127;-65
2023/04/02 10:40:23;;;;;;;4.13;1.77;;;;;;;;;;5034922;28;20067;-63
2023/04/02 10:42:55;;;;;;;4.97;2.00;;;;;;;;;;5040787;28;20055;-64
2023/04/02 10:45:38;;;;;;;4.18;1.80;;;;;;;;;;5030407;28;20064;-63
2023/04/02 10:48:08;;;;;;;5.93;1.70;;;;;;;;;;5038141;28;20052;-65
2023/04/02 10:50:40;;;;;;;4.00;1.90;;;;;;;;;;5035257;28;20159;-63
2023/04/02 10:53:12;;;;;;;4.05;1.80;;;;;;;;;;5039680;28;20156;-63
2023/04/02 10:55:42;;;;;;;5.97;1.85;;;;;;;;;;5040818;28;20503;-63
2023/04/02 10:58:34;;;;;;;3.28;1.60;;;;;;;;;;5034107;28;20411;-63
2023/04/02 11:01:03;;;;;;;6.72;1.77;;;;;;;;;;5030775;28;20049;-64
2023/04/02 11:03:34;;;;;;;5.90;1.95;;;;;;;;;;5033033;28;20477;-63
2023/04/02 11:06:04;;;;;;;3.63;1.65;;;;;;;;;;5043754;28;20465;-64
2023/04/02 11:08:38;;;;;;;5.63;2.13;;;;;;;;;;5032266;28;20417;-63
2023/04/02 11:11:13;;;;;;;7.60;2.00;;;;;;;;;;5042349;28;20442;-63
2023/04/02 11:13:49;;;;;;;6.07;2.05;;;;;;;;;;5016072;28;20051;-65
2023/04/02 11:16:16;;;;;;;4.03;1.52;;;;;;;;;;5037027;28;20053;-65
2023/04/02 11:19:02;;;;;;;4.55;2.17;;;;;;;;;;5040045;28;20083;-64
2023/04/02 11:21:28;;;;;;;4.20;1.52;;;;;;;;;;5033858;28;20102;-63
2023/04/02 11:24:01;;;;;;;4.65;1.55;;;;;;;;;;5040016;28;20048;-65
2023/04/02 11:26:39;;;;;;;7.15;2.08;;;;;;;;;;5031618;28;20049;-64
2023/04/02 11:29:06;;;;;;;;;;;;;;;;;;5033831;28;20044;-66
2023/04/02 11:31:33;;;;;;;6.45;2.55;;;;;;;;;;5034108;28;19924;-64
2023/04/02 11:34:00;;;;;;;5.30;2.28;;;;;;;;;;5039275;28;20564;-64
2023/04/02 11:36:45;;;;;;;6.97;1.95;;;;;;;;;;5041741;28;20064;-65
2023/04/02 11:39:11;;;;;;;4.57;1.40;;;;;;;;;;5034647;28;20568;-64
2023/04/02 11:42:03;;;;;;;5.10;2.00;;;;;;;;;;5034382;28;20045;-64
2023/04/02 11:44:30;;;;;;;4.55;1.55;;;;;;;;;;5028198;28;20144;-64
2023/04/02 11:47:20;;;;;;;6.50;1.70;;;;;;;;;;5022942;28;20131;-64
2023/04/02 11:49:49;;;;;;;7.00;2.08;;;;;;;;;;5024977;28;20049;-64
2023/04/02 11:52:20;;;;;;;4.72;1.65;;;;;;;;;;5042643;28;20503;-63
2023/04/02 11:54:57;;;;;;;3.70;1.42;;;;;;;;;;5037111;28;20187;-65
2023/04/02 11:57:25;;;;;;;5.13;2.00;;;;;;;;;;5035227;28;20493;-63
2023/04/02 11:59:58;;;;;;;4.97;1.75;;;;;;;;;;5040213;28;20491;-64
2023/04/02 12:02:27;;;;;;;4.05;1.50;;;;;;;;;;5033364;28;20048;-64
2023/04/02 12:05:02;;;;;;;6.30;2.22;;;;;;;;;;5041927;28;20045;-63
2023/04/02 12:07:33;;;;;;;5.25;2.20;;;;;;;;;;5029817;28;20045;-63
2023/04/02 12:10:20;;;;;;;7.50;2.70;;;;;;;;;;5036374;28;20045;-65
2023/04/02 12:12:48;;;;;;;3.75;1.73;;;;;;;;;;5028360;28;20547;-65
2023/04/02 12:15:32;;;;;;;4.28;1.60;;;;;;;;;;5042094;28;20037;-63
2023/04/02 12:18:13;;;;;;;6.80;2.25;;;;;;;;;;5017360;28;20053;-63
2023/04/02 12:20:41;;;;;;;4.63;1.77;;;;;;;;;;5041381;28;20067;-64
2023/04/02 12:23:15;;;;;;;5.63;1.90;;;;;;;;;;5036798;28;20057;-67
2023/04/02 12:25:45;;;;;;;4.97;1.70;;;;;;;;;;5029884;28;20080;-65
2023/04/02 12:28:18;;;;;;;3.63;1.55;;;;;;;;;;5022399;28;20053;-65
2023/04/02 12:30:46;;;;;;;4.70;1.92;;;;;;;;;;5034193;28;20045;-64
2023/04/02 12:33:36;;;;;;;3.83;1.83;;;;;;;;;;5041201;28;20142;-64
2023/04/02 12:36:04;;;;;;;4.47;2.00;;;;;;;;;;5033349;28;20044;-63
2023/04/02 12:38:37;;;;;;;3.05;1.27;;;;;;;;;;5035247;28;20254;-64
2023/04/02 12:41:05;;;;;;;5.28;2.03;;;;;;;;;;5035811;28;20053;-64
2023/04/02 12:43:32;;;;;;;4.57;1.70;;;;;;;;;;5041076;28;20056;-65
2023/04/02 12:46:01;;;;;;;7.18;1.67;;;;;;;;;;5043208;28;20075;-65
2023/04/02 12:48:28;;;;;;;4.20;1.70;;;;;;;;;;5038184;28;20060;-64
2023/04/02 12:50:55;;;;;;;2.97;1.57;;;;;;;;;;5043868;28;20056;-63
2023/04/02 12:53:25;;;;;;;7.22;1.90;;;;;;;;;;5033070;28;20504;-64
2023/04/02 12:55:52;;;;;;;4.30;1.70;;;;;;;;;;5039512;28;20049;-63
2023/04/02 12:58:29;;;;;;;4.75;1.90;;;;;;;;;;5037348;28;20048;-66
2023/04/02 13:01:15;;;;;;;4.45;1.70;;;;;;;;;;5044412;28;20461;-63
2023/04/02 13:03:41;;;;;;;5.47;1.80;;;;;;;;;;5043099;28;20111;-64
2023/04/02 13:06:17;;;;;;;4.72;1.80;;;;;;;;;;5033576;28;20060;-65
2023/04/02 13:08:43;;;;;;;3.80;1.45;;;;;;;;;;5040769;28;20048;-64
2023/04/02 13:11:10;;;;;;;3.42;1.45;;;;;;;;;;5034254;28;20052;-63
2023/04/02 13:13:37;;;;;;;3.40;1.50;;;;;;;;;;5043642;28;20041;-65
2023/04/02 13:16:16;;;;;;;3.38;1.45;;;;;;;;;;5041678;28;20049;-63
2023/04/02 13:18:43;;;;;;;2.67;1.52;;;;;;;;;;5044923;28;20136;-65
2023/04/02 13:21:13;;;;;;;2.90;1.52;;;;;;;;;;5038613;28;20132;-64
2023/04/02 13:23:40;;;;;;;4.85;1.88;;;;;;;;;;5013945;28;20512;-65
2023/04/02 13:26:09;;;;;;;6.97;1.88;;;;;;;;;;5041851;28;20083;-65
2023/04/02 13:28:35;;;;;;;4.95;1.73;;;;;;;;;;5037317;28;20045;-64
2023/04/02 13:31:02;;;;;;;4.57;1.42;;;;;;;;;;5045277;28;20474;-65
2023/04/02 13:33:28;;;;;;;4.28;1.75;;;;;;;;;;5039050;28;20167;-66
2023/04/02 13:35:54;;;;;;;4.25;1.40;;;;;;;;;;5036128;28;20048;-66
2023/04/02 13:38:21;;;;;;;8.10;2.00;;;;;;;;;;5038329;28;20444;-65
2023/04/02 13:40:47;;;;;;;4.43;1.50;;;;;;;;;;5036528;28;20570;-65
2023/04/02 13:43:18;;;;;;;3.33;1.42;;;;;;;;;;5044472;28;20397;-66
2023/04/02 13:45:47;;;;;;;4.93;1.85;;;;;;;;;;5035970;28;20041;-66
2023/04/02 13:48:14;;;;;;;6.13;2.00;;;;;;;;;;5023992;28;20044;-66
2023/04/02 13:50:41;;;;;;;4.75;1.50;;;;;;;;;;5014158;28;20524;-67
2023/04/02 13:53:12;;;;;;;2.88;1.45;;;;;;;;;;5039828;28;20048;-65
2023/04/02 13:55:39;;;;;;;3.70;1.42;;;;;;;;;;5043527;28;20053;-65
2023/04/02 13:58:06;;;;;;;3.33;1.70;;;;;;;;;;5037818;28;20124;-65
2023/04/02 14:00:32;;;;;;;4.40;1.45;;;;;;;;;;5044709;28;20049;-65
2023/04/02 14:03:07;;;;;;;6.75;1.67;;;;;;;;;;5036623;28;20059;-65
2023/04/02 14:05:38;;;;;;;4.07;1.50;;;;;;;;;;5038413;28;20041;-65
2023/04/02 14:08:08;;;;;;;5.07;1.38;;;;;;;;;;5038471;28;20051;-66
2023/04/02 14:10:37;;;;;;;2.50;1.30;;;;;;;;;;5040641;28;20670;-65
2023/04/02 14:13:12;;;;;;;3.13;1.33;;;;;;;;;;5043750;28;20692;-65
2023/04/02 14:15:58;;;;;;;3.08;1.40;;;;;;;;;;5037814;28;20726;-64
2023/04/02 14:18:27;;;;;;;2.83;1.30;;;;;;;;;;5038475;28;20459;-64
2023/04/02 14:20:53;;;;;;;2.58;1.38;;;;;;;;;;5032737;28;20099;-65
2023/04/02 14:23:40;;;;;;;4.80;1.50;;;;;;;;;;5041715;28;20079;-64
2023/04/02 14:26:17;;;;;;;3.22;1.27;;;;;;;;;;5036542;28;20044;-65
2023/04/02 14:28:56;;;;;;;6.47;1.77;;;;;;;;;;5042293;28;20056;-65
2023/04/02 14:31:30;;;;;;;7.47;1.70;;;;;;;;;;5034394;28;20044;-64
2023/04/02 14:34:02;;;;;;;3.80;1.45;;;;;;;;;;5033039;28;20102;-65
2023/04/02 14:36:43;;;;;;;3.80;1.30;;;;;;;;;;5041445;28;20045;-64
2023/04/02 14:39:09;;;;;;;3.72;1.60;;;;;;;;;;5034342;28;20128;-65
2023/04/02 14:41:41;;;;;;;3.40;1.45;;;;;;;;;;5040311;28;20053;-65
2023/04/02 14:44:10;;;;;;;3.85;1.50;;;;;;;;;;5038969;28;20719;-65
2023/04/02 14:46:37;;;;;;;3.85;1.50;;;;;;;;;;5035784;28;20053;-66
2023/04/02 14:49:06;;;;;;;3.47;1.50;;;;;;;;;;5030980;28;20056;-66
2023/04/02 14:51:51;;;;;;;4.38;1.50;;;;;;;;;;5036990;28;20059;-64
2023/04/02 14:54:34;;;;;;;7.25;1.73;;;;;;;;;;5040084;28;20104;-65
2023/04/02 14:57:04;;;;;;;4.60;1.52;;;;;;;;;;5033998;28;20049;-65
2023/04/02 14:59:35;;;;;;;3.95;1.65;;;;;;;;;;5039641;28;20071;-65
2023/04/02 15:02:22;;;;;;;4.32;1.60;;;;;;;;;;5029075;28;20045;-65
2023/04/02 15:05:00;;;;;;;3.72;1.50;;;;;;;;;;5026777;28;20052;-66
2023/04/02 15:07:34;;;;;;;6.25;1.58;;;;;;;;;;5028860;28;20061;-65
2023/04/02 15:10:04;;;;;;;2.72;1.27;;;;;;;;;;5042122;28;20060;-65
2023/04/02 15:12:35;;;;;;;3.08;1.38;;;;;;;;;;5033680;28;20053;-64
2023/04/02 15:15:18;;;;;;;4.47;1.60;;;;;;;;;;5039244;28;20052;-66